Time;durP1;ratioP1;P1;durP2;ratioP2;P2;SDS_P1;SDS_P2;PMS_P1;PMS_P2;Temp;Humidity;BMP_temperature;BMP_pressure;BME280_temperature;BME280_humidity;BME280_pressure;Samples;Min_cycle;Max_cycle;Signal;HPM_P1;HPM_P2
2020/12/24 00:01:41;;;;;;;2.97;0.95;;;22.20;52.90;;;;;;5085021;28;20064;-63
2020/12/24 00:04:07;;;;;;;2.88;0.90;;;22.20;52.90;;;;;;5086925;28;20028;-63
2020/12/24 00:06:32;;;;;;;1.98;0.90;;;22.20;53.00;;;;;;5066460;28;20515;-63
2020/12/24 00:08:58;;;;;;;3.75;1.10;;;22.20;53.00;;;;;;5085406;28;20047;-64
2020/12/24 00:11:25;;;;;;;3.42;0.98;;;22.20;53.00;;;;;;5082802;28;20028;-64
2020/12/24 00:13:50;;;;;;;3.00;1.02;;;22.20;53.10;;;;;;5069729;28;20058;-64
2020/12/24 00:16:16;;;;;;;4.22;1.10;;;22.20;53.20;;;;;;5071574;28;20466;-65
2020/12/24 00:18:42;;;;;;;2.30;1.00;;;22.20;53.20;;;;;;5083009;28;20115;-65
2020/12/24 00:21:09;;;;;;;2.58;0.98;;;22.20;53.30;;;;;;5086922;28;20144;-66
2020/12/24 00:23:34;;;;;;;3.10;0.88;;;22.20;53.30;;;;;;5085314;28;20016;-63
2020/12/24 00:26:01;;;;;;;2.80;1.00;;;22.20;53.30;;;;;;5085382;28;20039;-64
2020/12/24 00:28:27;;;;;;;2.85;1.10;;;22.20;53.30;;;;;;5083911;28;20085;-63
2020/12/24 00:30:52;;;;;;;3.72;0.90;;;22.10;53.30;;;;;;5084809;28;20039;-64
2020/12/24 00:33:18;;;;;;;2.42;0.90;;;22.20;53.40;;;;;;5087054;28;20056;-63
2020/12/24 00:35:44;;;;;;;1.98;1.00;;;22.10;53.40;;;;;;5086332;28;20039;-64
2020/12/24 00:38:09;;;;;;;1.63;0.80;;;22.20;53.50;;;;;;5070385;28;20096;-64
2020/12/24 00:40:35;;;;;;;1.70;0.80;;;22.20;53.50;;;;;;5067884;28;20032;-63
2020/12/24 00:43:01;;;;;;;3.38;1.10;;;22.20;53.60;;;;;;5085575;28;20418;-63
2020/12/24 00:45:27;;;;;;;2.65;0.93;;;22.20;53.60;;;;;;5067679;28;20035;-63
2020/12/24 00:47:52;;;;;;;1.73;0.73;;;22.10;54.20;;;;;;5085352;28;20115;-60
2020/12/24 00:50:18;;;;;;;1.83;0.82;;;22.20;53.70;;;;;;5085025;28;20184;-61
2020/12/24 00:52:43;;;;;;;2.20;0.90;;;22.20;53.70;;;;;;5085644;28;20020;-62
2020/12/24 00:55:09;;;;;;;3.13;0.90;;;22.10;53.80;;;;;;5084359;28;20520;-62
2020/12/24 00:57:35;;;;;;;2.85;1.00;;;22.20;53.90;;;;;;5085157;28;20495;-64
2020/12/24 01:00:00;;;;;;;2.33;0.90;;;22.10;53.80;;;;;;5083965;28;20154;-63
2020/12/24 01:02:26;;;;;;;3.00;0.90;;;22.10;54.40;;;;;;5084278;28;20414;-65
2020/12/24 01:04:51;;;;;;;2.85;1.10;;;22.10;54.00;;;;;;5067788;28;20034;-66
2020/12/24 01:07:17;;;;;;;2.47;0.82;;;22.10;54.10;;;;;;5085737;28;20040;-64
2020/12/24 01:09:43;;;;;;;2.63;0.95;;;22.10;54.10;;;;;;5083523;28;21001;-65
2020/12/24 01:12:08;;;;;;;1.77;0.80;;;22.10;54.60;;;;;;5080941;28;20031;-66
2020/12/24 01:14:34;;;;;;;6.32;1.00;;;22.10;54.10;;;;;;5083655;28;20223;-66
2020/12/24 01:17:00;;;;;;;2.00;0.90;;;22.10;54.00;;;;;;5083563;28;20020;-65
2020/12/24 01:19:25;;;;;;;1.73;0.80;;;22.10;53.90;;;;;;5079055;28;20039;-65
2020/12/24 01:21:51;;;;;;;2.53;0.85;;;22.10;53.90;;;;;;5076354;28;20107;-65
2020/12/24 01:24:17;;;;;;;2.70;0.90;;;22.10;53.90;;;;;;5084492;28;20111;-65
2020/12/24 01:26:49;;;;;;;3.20;1.05;;;22.10;53.90;;;;;;5083177;28;20032;-65
2020/12/24 01:29:15;;;;;;;2.80;0.93;;;22.10;53.90;;;;;;5085780;28;20028;-65
2020/12/24 01:31:49;;;;;;;3.22;0.77;;;22.10;53.90;;;;;;5079250;28;20081;-66
2020/12/24 01:34:15;;;;;;;2.92;0.90;;;22.10;53.80;;;;;;5066433;28;20351;-66
2020/12/24 01:36:40;;;;;;;1.80;0.88;;;22.10;53.80;;;;;;5091038;28;20086;-65
2020/12/24 01:39:06;;;;;;;2.63;1.00;;;22.00;53.70;;;;;;5088424;28;20478;-66
2020/12/24 01:41:32;;;;;;;1.73;0.70;;;22.10;53.80;;;;;;5086109;28;20035;-65
2020/12/24 01:43:57;;;;;;;1.60;0.70;;;22.10;53.80;;;;;;5067360;28;20042;-65
2020/12/24 01:46:24;;;;;;;2.00;0.77;;;22.10;53.90;;;;;;5082225;28;20462;-66
2020/12/24 01:48:50;;;;;;;3.33;1.00;;;22.10;53.90;;;;;;5081210;28;20028;-65
2020/12/24 01:51:27;;;;;;;1.67;0.70;;;22.00;53.80;;;;;;5088314;28;20094;-65
2020/12/24 01:53:54;;;;;;;2.28;0.80;;;22.00;53.80;;;;;;5089235;28;20017;-65
2020/12/24 01:56:22;;;;;;;2.08;0.82;;;22.00;53.80;;;;;;5095581;28;20081;-65
2020/12/24 01:58:48;;;;;;;1.92;0.80;;;22.00;53.70;;;;;;5088928;28;20453;-65
2020/12/24 02:01:14;;;;;;;2.38;0.90;;;22.00;53.70;;;;;;5086342;28;20122;-65
2020/12/24 02:03:39;;;;;;;1.63;0.88;;;22.00;53.70;;;;;;5092081;28;20558;-66
2020/12/24 02:06:05;;;;;;;1.92;0.82;;;22.00;53.70;;;;;;5085948;28;20077;-66
2020/12/24 02:08:31;;;;;;;2.40;0.68;;;22.00;53.70;;;;;;5089363;28;20036;-65
2020/12/24 02:10:56;;;;;;;2.85;0.98;;;22.00;53.80;;;;;;5090641;28;20048;-66
2020/12/24 02:13:22;;;;;;;1.23;0.70;;;22.00;53.70;;;;;;5090723;28;20103;-65
2020/12/24 02:15:47;;;;;;;2.45;0.85;;;22.00;53.70;;;;;;5085470;28;20130;-66
2020/12/24 02:18:13;;;;;;;1.58;0.77;;;22.00;53.70;;;;;;5086187;28;20039;-65
2020/12/24 02:20:45;;;;;;;1.45;0.70;;;22.00;53.70;;;;;;5088020;28;20427;-66
2020/12/24 02:23:12;;;;;;;1.33;1.00;;;22.00;53.70;;;;;;5079128;28;20032;-66
2020/12/24 02:25:39;;;;;;;2.75;0.80;;;22.00;53.70;;;;;;5083745;28;20059;-66
2020/12/24 02:28:04;;;;;;;1.55;0.77;;;22.00;53.70;;;;;;5084918;28;20032;-66
2020/12/24 02:30:30;;;;;;;1.05;0.65;;;22.00;53.70;;;;;;5067260;28;20051;-66
2020/12/24 02:32:56;;;;;;;2.10;0.77;;;21.90;53.60;;;;;;5065874;28;20063;-65
2020/12/24 02:35:21;;;;;;;1.85;0.70;;;21.90;53.60;;;;;;5067657;28;20435;-66
2020/12/24 02:37:47;;;;;;;2.15;0.90;;;21.90;53.60;;;;;;5065770;28;20257;-65
2020/12/24 02:40:13;;;;;;;1.48;0.70;;;21.90;53.60;;;;;;5065156;28;20033;-65
2020/12/24 02:42:39;;;;;;;2.60;0.80;;;21.90;53.60;;;;;;5066470;28;20360;-66
2020/12/24 02:45:06;;;;;;;1.63;0.70;;;21.90;53.60;;;;;;5066964;28;20050;-66
2020/12/24 02:47:31;;;;;;;1.40;0.70;;;21.90;53.60;;;;;;5063405;28;20051;-66
2020/12/24 02:49:58;;;;;;;1.23;0.68;;;21.90;53.60;;;;;;5070075;28;20029;-65
2020/12/24 02:52:24;;;;;;;2.80;1.10;;;21.90;53.60;;;;;;5067846;28;20028;-65
2020/12/24 02:54:50;;;;;;;2.40;0.90;;;21.90;53.60;;;;;;5066139;28;20448;-66
2020/12/24 02:57:15;;;;;;;1.02;0.75;;;21.90;53.60;;;;;;5066265;28;20048;-65
2020/12/24 02:59:41;;;;;;;2.72;0.70;;;21.90;53.60;;;;;;5066458;28;20111;-66
2020/12/24 03:02:07;;;;;;;2.28;0.77;;;21.90;53.70;;;;;;5070643;28;20448;-66
2020/12/24 03:04:36;;;;;;;1.80;0.85;;;21.90;53.60;;;;;;5066700;28;20056;-66
2020/12/24 03:07:01;;;;;;;1.15;0.80;;;21.90;53.60;;;;;;5066323;28;20643;-65
2020/12/24 03:09:27;;;;;;;1.33;0.80;;;21.90;53.60;;;;;;5067300;28;20051;-66
2020/12/24 03:11:52;;;;;;;2.00;0.73;;;21.80;53.50;;;;;;5047910;28;20123;-66
2020/12/24 03:14:18;;;;;;;2.28;0.80;;;21.90;53.60;;;;;;5070334;28;20044;-66
2020/12/24 03:16:44;;;;;;;1.92;0.90;;;21.80;53.50;;;;;;5068552;28;20097;-66
2020/12/24 03:19:10;;;;;;;1.65;0.63;;;21.80;53.50;;;;;;5069214;28;20052;-65
2020/12/24 03:21:36;;;;;;;1.88;0.80;;;21.80;53.50;;;;;;5070504;28;20039;-65
2020/12/24 03:24:01;;;;;;;1.65;0.70;;;21.80;53.50;;;;;;5068635;28;20024;-66
2020/12/24 03:26:27;;;;;;;1.08;0.80;;;21.80;53.50;;;;;;5069553;28;20032;-65
2020/12/24 03:28:52;;;;;;;1.35;0.60;;;21.80;53.50;;;;;;5078891;28;20107;-66
2020/12/24 03:31:22;;;;;;;1.60;0.70;;;21.80;53.50;;;;;;5087780;28;20625;-65
2020/12/24 03:33:48;;;;;;;2.33;0.80;;;21.80;53.50;;;;;;5091392;28;20537;-66
2020/12/24 03:36:14;;;;;;;1.73;0.75;;;21.80;53.40;;;;;;5074741;28;20082;-66
2020/12/24 03:38:39;;;;;;;1.33;0.80;;;21.80;53.40;;;;;;5063005;28;20406;-66
2020/12/24 03:41:05;;;;;;;1.92;0.55;;;21.80;53.40;;;;;;5089382;28;20504;-65
2020/12/24 03:43:31;;;;;;;1.15;0.70;;;21.80;53.40;;;;;;5094194;28;20035;-66
2020/12/24 03:45:56;;;;;;;1.20;0.60;;;21.80;53.40;;;;;;5088465;28;20024;-66
2020/12/24 03:48:22;;;;;;;1.40;0.80;;;21.70;53.30;;;;;;5089668;28;20028;-66
2020/12/24 03:50:48;;;;;;;1.20;0.60;;;21.70;53.30;;;;;;5090020;28;20157;-66
2020/12/24 03:53:13;;;;;;;2.55;0.82;;;21.70;53.40;;;;;;5074676;28;20715;-66
2020/12/24 03:55:39;;;;;;;1.90;0.77;;;21.70;53.30;;;;;;5089625;28;20024;-66
2020/12/24 03:58:04;;;;;;;1.83;0.70;;;21.70;53.30;;;;;;5088984;28;20430;-66
2020/12/24 04:00:30;;;;;;;1.63;0.80;;;21.70;53.30;;;;;;5088853;28;20063;-66
2020/12/24 04:02:56;;;;;;;1.38;0.70;;;21.70;53.30;;;;;;5090149;28;20043;-66
2020/12/24 04:05:21;;;;;;;1.38;0.63;;;21.70;53.30;;;;;;5089940;28;20035;-65
2020/12/24 04:07:51;;;;;;;2.00;0.80;;;21.70;53.30;;;;;;5088912;28;20047;-65
2020/12/24 04:10:17;;;;;;;2.30;0.90;;;21.70;53.30;;;;;;5089455;28;20153;-66
2020/12/24 04:12:43;;;;;;;1.38;0.77;;;21.70;53.30;;;;;;5094548;28;20012;-65
2020/12/24 04:15:08;;;;;;;1.13;0.73;;;21.70;53.30;;;;;;5090289;28;20399;-66
2020/12/24 04:17:34;;;;;;;1.23;0.70;;;21.70;53.20;;;;;;5089367;28;20028;-66
2020/12/24 04:19:59;;;;;;;2.38;0.73;;;21.70;53.20;;;;;;5089549;28;20028;-65
2020/12/24 04:22:25;;;;;;;1.35;0.60;;;21.60;53.20;;;;;;5092015;28;20020;-65
2020/12/24 04:24:51;;;;;;;0.65;0.55;;;21.60;53.20;;;;;;5089454;28;20035;-66
2020/12/24 04:27:17;;;;;;;0.85;0.50;;;21.60;53.20;;;;;;5089167;28;20047;-66
2020/12/24 04:29:43;;;;;;;1.20;0.70;;;21.70;53.20;;;;;;5087770;28;20110;-66
2020/12/24 04:32:09;;;;;;;1.92;0.70;;;21.60;53.20;;;;;;5091070;28;20031;-65
2020/12/24 04:34:34;;;;;;;1.08;0.60;;;21.60;53.70;;;;;;5089571;28;20072;-65
2020/12/24 04:37:00;;;;;;;1.02;0.60;;;21.70;53.20;;;;;;5088784;28;20436;-66
2020/12/24 04:39:27;;;;;;;1.17;0.70;;;21.60;53.10;;;;;;5089166;28;20024;-65
2020/12/24 04:41:53;;;;;;;1.25;0.70;;;21.60;53.10;;;;;;5086746;28;20031;-66
2020/12/24 04:44:19;;;;;;;1.23;0.70;;;21.60;53.10;;;;;;5087871;28;20024;-65
2020/12/24 04:46:47;;;;;;;1.63;0.68;;;21.60;53.10;;;;;;5086520;28;20020;-66
2020/12/24 04:49:14;;;;;;;1.23;0.70;;;21.60;53.10;;;;;;5080937;28;20406;-66
2020/12/24 04:51:43;;;;;;;1.27;0.50;;;21.60;53.10;;;;;;5088778;28;20378;-66
2020/12/24 04:54:09;;;;;;;1.00;0.70;;;21.60;53.10;;;;;;5087931;28;20106;-65
2020/12/24 04:56:35;;;;;;;0.95;0.60;;;21.60;53.10;;;;;;5087313;28;20127;-66
2020/12/24 04:59:01;;;;;;;1.70;0.63;;;21.60;53.10;;;;;;5088859;28;20105;-66
2020/12/24 05:01:27;;;;;;;1.17;0.70;;;21.60;53.10;;;;;;5087061;28;20450;-66
2020/12/24 05:03:54;;;;;;;1.83;0.70;;;21.60;53.10;;;;;;5088258;28;20065;-65
2020/12/24 05:06:20;;;;;;;0.90;0.50;;;21.50;53.00;;;;;;5070915;28;20123;-65
2020/12/24 05:08:57;;;;;;;1.30;0.70;;;21.60;53.10;;;;;;5092335;28;20119;-66
2020/12/24 05:11:30;;;;;;;0.75;0.60;;;21.60;53.10;;;;;;5084044;28;20039;-65
2020/12/24 05:14:14;;;;;;;0.93;0.63;;;21.60;53.00;;;;;;5088020;28;20024;-66
2020/12/24 05:16:40;;;;;;;0.70;0.40;;;21.60;53.00;;;;;;5086984;28;20020;-66
2020/12/24 05:19:14;;;;;;;0.73;0.60;;;21.60;53.00;;;;;;5087769;28;20039;-66
2020/12/24 05:21:40;;;;;;;1.33;0.60;;;21.50;53.00;;;;;;5089781;28;20099;-66
2020/12/24 05:24:27;;;;;;;1.25;0.73;;;21.50;52.90;;;;;;5087257;28;20491;-66
2020/12/24 05:27:07;;;;;;;1.10;0.60;;;21.50;52.90;;;;;;5088046;28;20142;-66
2020/12/24 05:29:35;;;;;;;2.38;0.60;;;21.50;52.90;;;;;;5081245;28;20043;-66
2020/12/24 05:32:01;;;;;;;0.70;0.60;;;21.50;52.90;;;;;;5087976;28;20048;-66
2020/12/24 05:34:27;;;;;;;2.42;0.63;;;21.50;52.90;;;;;;5059477;28;20051;-65
2020/12/24 05:36:52;;;;;;;1.98;0.60;;;21.50;52.90;;;;;;5082080;28;20036;-66
2020/12/24 05:39:24;;;;;;;0.95;0.50;;;21.50;52.90;;;;;;5068821;28;20028;-65
2020/12/24 05:41:50;;;;;;;0.60;0.50;;;21.50;52.90;;;;;;5086322;28;20522;-65
2020/12/24 05:44:16;;;;;;;0.90;0.60;;;21.50;52.90;;;;;;5087813;28;20577;-65
2020/12/24 05:46:46;;;;;;;0.55;0.50;;;21.50;52.90;;;;;;5086217;28;20036;-65
2020/12/24 05:49:15;;;;;;;0.70;0.50;;;21.50;52.90;;;;;;5094251;28;20085;-65
2020/12/24 05:51:45;;;;;;;0.82;0.60;;;21.50;52.90;;;;;;5088666;28;20043;-65
2020/12/24 05:54:11;;;;;;;0.68;0.60;;;21.50;52.90;;;;;;5084298;28;20463;-65
2020/12/24 05:56:38;;;;;;;1.33;0.60;;;21.50;52.90;;;;;;5086715;28;20020;-65
2020/12/24 05:59:06;;;;;;;1.13;0.70;;;21.40;52.90;;;;;;5087756;28;20032;-66
2020/12/24 06:01:39;;;;;;;1.20;0.60;;;21.50;52.90;;;;;;5078730;28;20077;-65
2020/12/24 06:04:09;;;;;;;0.85;0.50;;;21.50;52.90;;;;;;5087700;28;20024;-66
2020/12/24 06:06:45;;;;;;;0.80;0.50;;;21.50;52.90;;;;;;5064334;28;20037;-66
2020/12/24 06:09:19;;;;;;;0.68;0.50;;;21.50;52.90;;;;;;5070493;28;20038;-66
2020/12/24 06:11:52;;;;;;;0.70;0.60;;;21.50;52.90;;;;;;5070083;28;20422;-65
2020/12/24 06:14:26;;;;;;;1.45;0.60;;;21.50;52.90;;;;;;5050592;28;20028;-65
2020/12/24 06:16:54;;;;;;;1.33;0.57;;;21.40;52.90;;;;;;5091998;28;20407;-66
2020/12/24 06:19:21;;;;;;;0.60;0.45;;;21.40;52.90;;;;;;5091698;28;20028;-65
2020/12/24 06:21:47;;;;;;;1.08;0.50;;;21.40;52.90;;;;;;5095065;28;20416;-66
2020/12/24 06:24:14;;;;;;;0.75;0.40;;;21.40;52.90;;;;;;5097679;28;20089;-66
2020/12/24 06:26:45;;;;;;;1.02;0.60;;;21.40;52.90;;;;;;5086469;28;20040;-66
2020/12/24 06:29:14;;;;;;;2.13;0.50;;;21.40;52.90;;;;;;5090454;28;20074;-65
2020/12/24 06:31:44;;;;;;;1.03;0.60;;;21.40;52.90;;;;;;5085666;28;20095;-65
2020/12/24 06:34:24;;;;;;;0.63;0.43;;;21.40;52.90;;;;;;5082480;28;20024;-65
2020/12/24 06:36:50;;;;;;;0.82;0.57;;;21.40;52.90;;;;;;5063756;28;20031;-65
2020/12/24 06:39:39;;;;;;;0.40;0.40;;;21.40;52.80;;;;;;5081610;28;20024;-65
2020/12/24 06:42:05;;;;;;;0.70;0.52;;;21.40;52.90;;;;;;5084921;28;20053;-66
2020/12/24 06:44:47;;;;;;;0.60;0.50;;;21.40;52.80;;;;;;5090163;28;20048;-65
2020/12/24 06:47:17;;;;;;;0.73;0.47;;;21.40;52.80;;;;;;5072255;28;20039;-65
2020/12/24 06:49:43;;;;;;;1.30;0.40;;;21.40;52.80;;;;;;5093009;28;20114;-65
2020/12/24 06:52:09;;;;;;;0.65;0.50;;;21.40;52.80;;;;;;5093596;28;20032;-66
2020/12/24 06:54:38;;;;;;;1.23;0.45;;;21.40;52.80;;;;;;5091301;28;20073;-65
2020/12/24 06:57:25;;;;;;;0.70;0.43;;;21.40;52.70;;;;;;5091166;28;20039;-65
2020/12/24 07:00:20;;;;;;;0.65;0.40;;;21.40;52.70;;;;;;5072253;28;20039;-66
2020/12/24 07:02:52;;;;;;;0.85;0.40;;;21.30;52.70;;;;;;5086259;28;20027;-65
2020/12/24 07:05:42;;;;;;;0.77;0.60;;;21.30;52.70;;;;;;5090439;28;20035;-65
2020/12/24 07:08:09;;;;;;;0.88;0.50;;;21.30;52.70;;;;;;5085089;28;20127;-67
2020/12/24 07:10:45;;;;;;;1.08;0.47;;;21.30;52.70;;;;;;5090042;28;20032;-66
2020/12/24 07:13:30;;;;;;;0.63;0.40;;;21.30;52.60;;;;;;5093962;28;20492;-66
2020/12/24 07:15:56;;;;;;;0.60;0.40;;;21.30;52.50;;;;;;5079841;28;20394;-65
2020/12/24 07:18:23;;;;;;;0.43;0.40;;;21.30;52.50;;;;;;5087218;28;20020;-66
2020/12/24 07:20:50;;;;;;;0.40;0.30;;;21.30;52.50;;;;;;5070893;28;20386;-66
2020/12/24 07:23:31;;;;;;;0.30;0.30;;;21.30;52.50;;;;;;5071894;28;20024;-63
2020/12/24 07:26:05;;;;;;;0.40;0.40;;;21.30;52.70;;;;;;5087050;28;20055;-66
2020/12/24 07:28:33;;;;;;;0.50;0.40;;;21.30;52.80;;;;;;5095174;28;20079;-64
2020/12/24 07:31:04;;;;;;;0.73;0.50;;;21.30;52.70;;;;;;5086020;28;20289;-66
2020/12/24 07:33:30;;;;;;;0.38;0.38;;;21.30;52.60;;;;;;5085863;28;20121;-64
2020/12/24 07:35:56;;;;;;;0.65;0.50;;;21.20;52.40;;;;;;5086310;28;20554;-65
2020/12/24 07:38:24;;;;;;;0.40;0.40;;;21.20;52.40;;;;;;5084573;28;20025;-65
2020/12/24 07:40:50;;;;;;;0.88;0.50;;;21.30;52.40;;;;;;5087998;28;20024;-65
2020/12/24 07:43:16;;;;;;;1.40;0.40;;;21.30;52.50;;;;;;5088107;28;20466;-64
2020/12/24 07:45:43;;;;;;;0.38;0.38;;;21.30;52.40;;;;;;5090452;28;20107;-64
2020/12/24 07:48:18;;;;;;;0.55;0.45;;;21.20;52.40;;;;;;5090925;28;20367;-65
2020/12/24 07:50:45;;;;;;;0.50;0.40;;;21.20;52.30;;;;;;5069765;28;20564;-66
2020/12/24 07:53:17;;;;;;;0.63;0.38;;;21.20;52.30;;;;;;5093797;28;20457;-64
2020/12/24 07:55:42;;;;;;;0.50;0.40;;;21.20;52.30;;;;;;5092109;28;20028;-65
2020/12/24 07:58:09;;;;;;;0.82;0.40;;;21.20;52.30;;;;;;5092893;28;20101;-64
2020/12/24 08:00:48;;;;;;;0.82;0.40;;;21.20;52.20;;;;;;5085985;28;20043;-64
2020/12/24 08:03:16;;;;;;;2.03;0.40;;;21.20;52.20;;;;;;5086532;28;20077;-65
2020/12/24 08:05:49;;;;;;;0.77;0.40;;;21.20;52.20;;;;;;5068163;28;20849;-65
2020/12/24 08:08:22;;;;;;;0.43;0.35;;;21.20;52.30;;;;;;5087232;28;20028;-64
2020/12/24 08:10:47;;;;;;;0.38;0.20;;;21.20;52.20;;;;;;5084606;28;20032;-64
2020/12/24 08:13:13;;;;;;;0.68;0.40;;;21.20;52.30;;;;;;5087150;28;20036;-64
2020/12/24 08:15:46;;;;;;;0.80;0.40;;;21.20;52.20;;;;;;5086657;28;20059;-65
2020/12/24 08:18:13;;;;;;;0.95;0.55;;;21.20;52.20;;;;;;5085096;28;20518;-65
2020/12/24 08:21:00;;;;;;;0.43;0.38;;;21.20;52.00;;;;;;5087273;28;20054;-65
2020/12/24 08:23:44;;;;;;;0.52;0.32;;;21.20;52.00;;;;;;5091891;28;20093;-65
2020/12/24 08:26:12;;;;;;;0.60;0.38;;;21.20;52.10;;;;;;5086215;28;20461;-64
2020/12/24 08:28:41;;;;;;;1.42;0.47;;;21.10;51.90;;;;;;5087628;28;20040;-65
2020/12/24 08:31:09;;;;;;;0.68;0.30;;;21.10;51.70;;;;;;5081909;28;20012;-64
2020/12/24 08:33:35;;;;;;;0.57;0.38;;;21.10;51.60;;;;;;5085890;28;20035;-65
2020/12/24 08:36:27;;;;;;;1.50;0.50;;;21.10;51.50;;;;;;5074296;28;20031;-65
2020/12/24 08:39:07;;;;;;;0.82;0.50;;;21.10;51.40;;;;;;5083289;28;20086;-65
2020/12/24 08:41:35;;;;;;;0.47;0.40;;;21.10;51.50;;;;;;5086318;28;20110;-66
2020/12/24 08:44:03;;;;;;;0.60;0.40;;;21.10;51.50;;;;;;5086030;28;20024;-64
2020/12/24 08:46:30;;;;;;;1.05;0.40;;;21.10;51.90;;;;;;5083700;28;20481;-65
2020/12/24 08:48:56;;;;;;;0.40;0.40;;;21.10;51.40;;;;;;5078154;28;20055;-65
2020/12/24 08:51:22;;;;;;;1.42;0.40;;;21.10;51.30;;;;;;5078890;28;20020;-64
2020/12/24 08:53:51;;;;;;;0.90;0.60;;;21.10;51.40;;;;;;5078351;28;20040;-65
2020/12/24 08:56:18;;;;;;;0.30;0.30;;;21.10;51.40;;;;;;5087397;28;20024;-66
2020/12/24 08:58:53;;;;;;;0.68;0.50;;;21.10;51.40;;;;;;5083495;28;20028;-64
2020/12/24 09:01:20;;;;;;;0.20;0.20;;;21.00;51.30;;;;;;5086848;28;20027;-64
2020/12/24 09:03:47;;;;;;;0.73;0.40;;;21.00;51.20;;;;;;5089498;28;20084;-64
2020/12/24 09:06:16;;;;;;;0.65;0.40;;;21.00;51.20;;;;;;5085749;28;20565;-64
2020/12/24 09:08:49;;;;;;;0.55;0.47;;;21.00;51.30;;;;;;5086699;28;20020;-65
2020/12/24 09:11:26;;;;;;;0.68;0.40;;;21.00;51.30;;;;;;5084404;28;20016;-65
2020/12/24 09:13:56;;;;;;;1.98;0.77;;;21.00;51.30;;;;;;5079120;28;20033;-64
2020/12/24 09:16:22;;;;;;;1.23;0.30;;;21.00;51.40;;;;;;5066442;28;20028;-64
2020/12/24 09:18:47;;;;;;;0.68;0.38;;;21.00;51.40;;;;;;5087297;28;20038;-65
2020/12/24 09:21:13;;;;;;;0.40;0.30;;;21.00;51.40;;;;;;5088315;28;20398;-65
2020/12/24 09:23:39;;;;;;;0.30;0.30;;;21.00;51.40;;;;;;5090289;28;20066;-65
2020/12/24 09:26:04;;;;;;;0.40;0.30;;;21.00;51.40;;;;;;5084759;28;20027;-64
2020/12/24 09:28:30;;;;;;;0.40;0.30;;;21.00;51.50;;;;;;5068554;28;20514;-65
2020/12/24 09:30:59;;;;;;;0.60;0.40;;;21.00;51.50;;;;;;5090381;28;20081;-65
2020/12/24 09:33:26;;;;;;;0.40;0.30;;;21.00;51.50;;;;;;5085462;28;20048;-64
2020/12/24 09:35:52;;;;;;;1.52;0.50;;;21.00;51.50;;;;;;5086846;28;20438;-65
2020/12/24 09:38:18;;;;;;;0.50;0.28;;;21.00;51.60;;;;;;5063044;28;20034;-65
2020/12/24 09:40:44;;;;;;;1.42;0.38;;;20.90;51.50;;;;;;5077929;28;20393;-64
2020/12/24 09:43:09;;;;;;;0.60;0.40;;;20.90;51.70;;;;;;5079636;28;20374;-65
2020/12/24 09:45:36;;;;;;;0.40;0.40;;;21.00;51.80;;;;;;5062034;28;20398;-65
2020/12/24 09:48:02;;;;;;;0.38;0.30;;;21.00;51.90;;;;;;5085389;28;20034;-65
2020/12/24 09:50:28;;;;;;;0.52;0.40;;;20.90;51.90;;;;;;5086732;28;20024;-65
2020/12/24 09:52:54;;;;;;;0.70;0.40;;;20.90;52.00;;;;;;5085473;28;20024;-65
2020/12/24 09:55:19;;;;;;;1.33;0.50;;;21.00;52.10;;;;;;5081892;28;20035;-66
2020/12/24 09:57:45;;;;;;;1.33;0.65;;;21.00;52.20;;;;;;5066279;28;20272;-65
2020/12/24 10:00:11;;;;;;;0.60;0.40;;;21.00;52.20;;;;;;5085417;28;20028;-65
2020/12/24 10:02:37;;;;;;;1.80;0.40;;;20.90;52.20;;;;;;5083491;28;20080;-66
2020/12/24 10:05:04;;;;;;;1.02;0.40;;;20.90;52.40;;;;;;5078613;28;20424;-65
2020/12/24 10:07:30;;;;;;;2.20;0.50;;;20.90;52.40;;;;;;5091295;28;20190;-65
2020/12/24 10:09:56;;;;;;;1.63;0.45;;;21.00;52.50;;;;;;5076130;28;20139;-65
2020/12/24 10:12:26;;;;;;;1.15;0.40;;;20.90;52.50;;;;;;5085807;28;20487;-64
2020/12/24 10:14:56;;;;;;;2.33;0.45;;;20.90;52.50;;;;;;5087685;28;20456;-65
2020/12/24 10:17:22;;;;;;;0.60;0.40;;;21.00;52.60;;;;;;5079009;28;20028;-65
2020/12/24 10:19:48;;;;;;;1.35;0.40;;;21.00;52.70;;;;;;5097864;28;20097;-65
2020/12/24 10:22:14;;;;;;;3.30;0.50;;;21.00;52.70;;;;;;5090263;28;20082;-65
2020/12/24 10:24:41;;;;;;;2.35;0.55;;;21.00;52.80;;;;;;5093476;28;20153;-65
2020/12/24 10:27:13;;;;;;;2.70;0.50;;;21.00;52.90;;;;;;5089282;28;20017;-65
2020/12/24 10:29:39;;;;;;;1.35;0.50;;;21.00;52.90;;;;;;5087565;28;20039;-66
2020/12/24 10:32:04;;;;;;;3.72;0.52;;;21.00;52.90;;;;;;5083254;28;20024;-67
2020/12/24 10:34:30;;;;;;;2.50;0.68;;;21.00;52.90;;;;;;5076731;28;20624;-65
2020/12/24 10:36:57;;;;;;;2.20;0.43;;;21.00;53.20;;;;;;5078519;28;20024;-66
2020/12/24 10:39:23;;;;;;;2.50;0.70;;;21.10;53.30;;;;;;5085352;28;20032;-66
2020/12/24 10:41:49;;;;;;;1.92;0.55;;;21.20;53.00;;;;;;5084463;28;20063;-68
2020/12/24 10:44:16;;;;;;;2.35;0.70;;;21.30;52.80;;;;;;5087222;28;20105;-65
2020/12/24 10:46:41;;;;;;;2.78;0.70;;;21.50;52.70;;;;;;5080400;28;20036;-64
2020/12/24 10:49:07;;;;;;;2.35;0.60;;;21.60;52.40;;;;;;5078496;28;20294;-65
2020/12/24 10:51:33;;;;;;;2.17;0.60;;;21.70;52.10;;;;;;5082085;28;20085;-64
2020/12/24 10:53:58;;;;;;;3.33;0.80;;;21.90;52.00;;;;;;5083983;28;20040;-64
2020/12/24 10:56:24;;;;;;;2.08;0.70;;;22.00;51.70;;;;;;5087066;28;20520;-63
2020/12/24 10:58:49;;;;;;;2.03;0.60;;;22.10;51.50;;;;;;5092925;28;20387;-64
2020/12/24 11:01:17;;;;;;;1.92;0.85;;;22.20;51.30;;;;;;5081490;28;20541;-64
2020/12/24 11:03:43;;;;;;;3.47;0.60;;;22.30;51.00;;;;;;5087662;28;20028;-66
2020/12/24 11:06:21;;;;;;;1.48;0.63;;;22.40;51.00;;;;;;5087782;28;20032;-66
2020/12/24 11:08:51;;;;;;;4.63;0.90;;;22.50;50.80;;;;;;5079588;28;20127;-67
2020/12/24 11:11:17;;;;;;;1.63;0.70;;;22.50;50.50;;;;;;5080440;28;20742;-66
2020/12/24 11:13:45;;;;;;;4.97;0.70;;;22.40;50.50;;;;;;5066005;28;20458;-66
2020/12/24 11:16:19;;;;;;;4.03;0.80;;;22.40;50.60;;;;;;5084221;28;20073;-66
2020/12/24 11:18:45;;;;;;;2.22;0.60;;;22.30;50.60;;;;;;5093141;28;20040;-68
2020/12/24 11:21:10;;;;;;;2.47;0.70;;;22.30;50.70;;;;;;5062986;28;20047;-63
2020/12/24 11:23:36;;;;;;;4.25;0.90;;;22.30;50.70;;;;;;5084903;28;20115;-63
2020/12/24 11:26:02;;;;;;;2.88;0.82;;;22.30;50.80;;;;;;5085639;28;20031;-63
2020/12/24 11:28:27;;;;;;;4.63;0.80;;;22.30;50.80;;;;;;5080877;28;20786;-67
2020/12/24 11:30:53;;;;;;;3.60;1.38;;;22.30;50.80;;;;;;5062955;28;20028;-67
2020/12/24 11:33:18;;;;;;;2.22;0.70;;;22.40;50.70;;;;;;5078785;28;20218;-65
2020/12/24 11:35:45;;;;;;;6.10;1.10;;;22.40;50.70;;;;;;5058598;28;21157;-63
2020/12/24 11:38:11;;;;;;;5.53;0.90;;;22.40;50.60;;;;;;5082245;28;20032;-66
2020/12/24 11:40:36;;;;;;;2.63;0.70;;;22.40;50.50;;;;;;5066438;28;20040;-64
2020/12/24 11:43:02;;;;;;;4.43;1.00;;;22.40;50.50;;;;;;5081357;28;20076;-64
2020/12/24 11:45:27;;;;;;;3.53;0.90;;;22.40;50.40;;;;;;5078091;28;20027;-64
2020/12/24 11:47:53;;;;;;;4.28;0.95;;;22.40;50.40;;;;;;5066775;28;20331;-62
2020/12/24 11:50:19;;;;;;;5.55;0.90;;;22.40;50.40;;;;;;5084047;28;20051;-63
2020/12/24 11:52:44;;;;;;;2.22;0.68;;;22.50;50.40;;;;;;5060253;28;20047;-63
2020/12/24 11:55:10;;;;;;;4.38;0.90;;;22.50;50.30;;;;;;5082891;28;20485;-62
2020/12/24 11:57:38;;;;;;;4.13;0.60;;;22.50;50.30;;;;;;5057544;28;20039;-64
2020/12/24 12:00:09;;;;;;;5.05;0.80;;;22.50;50.20;;;;;;5081682;28;20024;-62
2020/12/24 12:02:35;;;;;;;5.05;0.73;;;22.50;50.30;;;;;;5073471;28;20109;-64
2020/12/24 12:05:01;;;;;;;2.40;0.70;;;22.60;50.30;;;;;;5075661;28;20101;-65
2020/12/24 12:07:27;;;;;;;3.00;0.80;;;22.60;50.20;;;;;;5083998;28;20028;-62
2020/12/24 12:09:52;;;;;;;5.93;0.82;;;22.60;50.20;;;;;;5084897;28;20027;-64
2020/12/24 12:12:18;;;;;;;4.75;0.90;;;22.60;50.10;;;;;;5082950;28;20063;-62
2020/12/24 12:14:44;;;;;;;3.28;0.70;;;22.60;50.20;;;;;;5085051;28;20031;-65
2020/12/24 12:17:14;;;;;;;2.65;0.70;;;22.60;50.20;;;;;;5080872;28;20032;-63
2020/12/24 12:19:43;;;;;;;3.50;0.80;;;22.60;50.10;;;;;;5085623;28;20114;-64
2020/12/24 12:22:10;;;;;;;3.50;0.77;;;22.60;50.20;;;;;;5089558;28;20483;-64
2020/12/24 12:24:36;;;;;;;3.92;0.73;;;22.60;50.20;;;;;;5066756;28;20596;-64
2020/12/24 12:27:01;;;;;;;2.72;0.60;;;22.60;50.10;;;;;;5091331;28;20036;-64
2020/12/24 12:29:27;;;;;;;4.22;0.80;;;22.60;50.20;;;;;;5088758;28;20031;-64
2020/12/24 12:31:52;;;;;;;4.18;0.70;;;22.60;50.30;;;;;;5087601;28;20032;-64
2020/12/24 12:34:18;;;;;;;3.28;0.80;;;22.60;50.20;;;;;;5081086;28;20043;-64
2020/12/24 12:36:44;;;;;;;2.10;0.73;;;22.70;50.80;;;;;;5082992;28;20028;-65
2020/12/24 12:39:09;;;;;;;2.33;0.60;;;22.70;49.80;;;;;;5087547;28;20050;-68
2020/12/24 12:41:35;;;;;;;1.98;0.55;;;22.60;48.80;;;;;;5080726;28;20028;-67
2020/12/24 12:44:01;;;;;;;1.50;0.68;;;22.60;47.90;;;;;;5077919;28;20111;-67
2020/12/24 12:46:27;;;;;;;2.70;0.60;;;22.50;47.30;;;;;;5066647;28;20294;-64
2020/12/24 12:48:53;;;;;;;3.05;0.60;;;22.50;47.30;;;;;;5076618;28;20545;-63
2020/12/24 12:51:19;;;;;;;3.10;0.77;;;22.50;47.60;;;;;;5082164;28;20136;-63